Time,TemperatureF,DewpointF,PressureIn,WindDirection,WindDirectionDegrees,WindSpeedMPH,WindSpeedGustMPH,Humidity,HourlyPrecipIn,Conditions,Clouds,dailyrainin,SoftwareType,DateUTC
2013-01-29 00:15:00,32.7,32.5,29.83,East,90,0.0,-999.0,99,-99.99,,,0.00,Acu-Link.com,2013-01-29 05:15:00,
2013-01-29 00:30:00,32.0,31.8,29.83,SSE,157,0.0,-999.0,99,-99.99,,,0.00,Acu-Link.com,2013-01-29 05:30:00,
2013-01-29 00:46:00,31.3,31.1,29.82,South,180,0.0,-999.0,99,-99.99,,,0.00,Acu-Link.com,2013-01-29 05:46:00,
2013-01-29 01:01:00,30.6,30.4,29.81,ESE,112,0.0,-999.0,99,-99.99,,,0.00,Acu-Link.com,2013-01-29 06:01:00,
2013-01-29 01:16:00,30.4,30.2,29.81,South,180,0.0,-999.0,99,-99.99,,,0.00,Acu-Link.com,2013-01-29 06:16:00,
2013-01-29 01:32:00,29.8,29.6,29.79,East,90,0.0,-999.0,99,-99.99,,,0.00,Acu-Link.com,2013-01-29 06:32:00,
2013-01-29 01:47:00,30.2,30.0,29.79,SSE,157,0.0,-999.0,99,-99.99,,,0.00,Acu-Link.com,2013-01-29 06:47:00,
2013-01-29 02:02:00,31.5,31.3,29.79,SW,225,0.0,-999.0,99,-99.99,,,0.00,Acu-Link.com,2013-01-29 07:02:00,
2013-01-29 02:18:00,31.6,31.4,29.78,ESE,112,0.0,-999.0,99,-99.99,,,0.00,Acu-Link.com,2013-01-29 07:18:00,
2013-01-29 02:33:00,32.4,32.2,29.78,SSE,157,1.7,-999.0,99,-99.99,,,0.00,Acu-Link.com,2013-01-29 07:33:00,
2013-01-29 02:48:00,32.9,32.7,29.77,SE,135,0.0,-999.0,99,-99.99,,,0.00,Acu-Link.com,2013-01-29 07:48:00,
2013-01-29 03:04:00,33.6,33.3,29.78,SSE,157,2.7,-999.0,99,-99.99,,,0.00,Acu-Link.com,2013-01-29 08:04:00,
2013-01-29 03:19:00,33.8,33.5,29.77,ESE,112,2.7,-999.0,99,-99.99,,,0.00,Acu-Link.com,2013-01-29 08:19:00,
2013-01-29 03:34:00,34.0,33.7,29.76,South,180,2.7,-999.0,99,-99.99,,,0.00,Acu-Link.com,2013-01-29 08:34:00,
2013-01-29 03:49:00,34.0,33.7,29.75,ESE,112,2.7,-999.0,99,-99.99,,,0.00,Acu-Link.com,2013-01-29 08:49:00,
2013-01-29 04:15:00,34.3,34.0,29.74,South,180,2.2,-999.0,99,-99.99,,,0.00,Acu-Link.com,2013-01-29 09:15:00,
2013-01-29 04:30:00,34.7,34.4,29.72,SE,135,2.2,-999.0,99,-99.99,,,0.00,Acu-Link.com,2013-01-29 09:30:00,
2013-01-29 04:46:00,35.2,34.9,29.72,WSW,247,2.7,-999.0,99,-99.99,,,0.00,Acu-Link.com,2013-01-29 09:46:00,
2013-01-29 05:01:00,35.6,35.3,29.71,ESE,112,3.7,-999.0,99,-99.99,,,0.02,Acu-Link.com,2013-01-29 10:01:00,
2013-01-29 05:16:00,35.6,35.3,29.70,East,90,2.7,-999.0,99,-99.99,,,0.05,Acu-Link.com,2013-01-29 10:16:00,
2013-01-29 05:31:00,36.0,35.7,29.68,SSE,157,4.7,-999.0,99,-99.99,,,0.07,Acu-Link.com,2013-01-29 10:31:00,
2013-01-29 05:46:00,36.0,35.7,29.69,SSW,202,3.7,-999.0,99,-99.99,,,0.09,Acu-Link.com,2013-01-29 10:46:00,
2013-01-29 06:02:00,36.1,35.8,29.66,South,180,4.7,-999.0,99,-99.99,,,0.14,Acu-Link.com,2013-01-29 11:02:00,
2013-01-29 06:17:00,36.5,36.2,29.64,ESE,112,6.3,-999.0,99,-99.99,,,0.15,Acu-Link.com,2013-01-29 11:17:00,
2013-01-29 06:33:00,37.0,36.7,29.62,South,180,8.3,-999.0,99,-99.99,,,0.15,Acu-Link.com,2013-01-29 11:33:00,
2013-01-29 06:48:00,37.2,36.9,29.64,SW,225,1.7,-999.0,99,-99.99,,,0.15,Acu-Link.com,2013-01-29 11:48:00,
2013-01-29 07:03:00,37.2,36.9,29.64,SSE,157,2.2,-999.0,99,-99.99,,,0.15,Acu-Link.com,2013-01-29 12:03:00,
2013-01-29 07:19:00,37.4,37.1,29.63,SSE,157,5.8,-999.0,99,-99.99,,,0.15,Acu-Link.com,2013-01-29 12:19:00,
2013-01-29 07:34:00,37.4,37.1,29.64,South,180,2.7,-999.0,99,-99.99,,,0.17,Acu-Link.com,2013-01-29 12:34:00,
2013-01-29 07:49:00,37.4,37.1,29.67,ESE,112,1.7,-999.0,99,-99.99,,,0.21,Acu-Link.com,2013-01-29 12:49:00,
2013-01-29 08:04:00,37.6,37.3,29.63,ESE,112,3.7,-999.0,99,-99.99,,,0.24,Acu-Link.com,2013-01-29 13:04:00,
2013-01-29 08:21:00,37.6,37.3,29.63,South,180,2.7,-999.0,99,-99.99,,,0.24,Acu-Link.com,2013-01-29 13:21:00,
2013-01-29 08:36:00,38.5,38.2,29.63,South,180,4.7,-999.0,99,-99.99,,,0.24,Acu-Link.com,2013-01-29 13:36:00,
2013-01-29 08:52:00,39.0,38.7,29.62,South,180,2.7,-999.0,99,-99.99,,,0.24,Acu-Link.com,2013-01-29 13:52:00,
2013-01-29 09:10:00,40.1,39.8,29.63,SSW,202,4.7,-999.0,99,-99.99,,,0.24,Acu-Link.com,2013-01-29 14:10:00,
2013-01-29 09:31:00,40.1,39.8,29.61,South,180,4.7,-999.0,99,-99.99,,,0.24,Acu-Link.com,2013-01-29 14:31:00,
2013-01-29 10:01:00,42.3,42.0,29.60,South,180,4.7,-999.0,99,-99.99,,,0.24,Acu-Link.com,2013-01-29 15:01:00,
2013-01-29 10:16:00,43.0,42.7,29.60,SSE,157,3.7,-999.0,99,-99.99,,,0.24,Acu-Link.com,2013-01-29 15:16:00,
2013-01-29 10:32:00,43.2,42.9,29.60,South,180,4.7,-999.0,99,-99.99,,,0.24,Acu-Link.com,2013-01-29 15:32:00,
2013-01-29 10:47:00,43.7,43.4,29.60,South,180,4.7,-999.0,99,-99.99,,,0.24,Acu-Link.com,2013-01-29 15:47:00,
2013-01-29 11:02:00,43.9,43.6,29.60,SSW,202,4.2,-999.0,99,-99.99,,,0.24,Acu-Link.com,2013-01-29 16:02:00,
2013-01-29 11:23:00,43.9,43.6,29.60,SSW,202,2.7,-999.0,99,-99.99,,,0.24,Acu-Link.com,2013-01-29 16:23:00,
2013-01-29 11:39:00,44.4,44.1,29.59,SSW,202,4.2,-999.0,99,-99.99,,,0.24,Acu-Link.com,2013-01-29 16:39:00,
2013-01-29 11:54:00,44.8,44.5,29.59,WSW,247,4.7,-999.0,99,-99.99,,,0.24,Acu-Link.com,2013-01-29 16:54:00,
2013-01-29 12:09:00,45.7,45.4,29.58,ESE,112,3.7,-999.0,99,-99.99,,,0.24,Acu-Link.com,2013-01-29 17:09:00,
2013-01-29 12:27:00,46.6,46.3,29.56,South,180,3.7,-999.0,99,-99.99,,,0.24,Acu-Link.com,2013-01-29 17:27:00,
2013-01-29 12:43:00,47.5,47.2,29.54,WNW,292,0.0,-999.0,99,-99.99,,,0.24,Acu-Link.com,2013-01-29 17:43:00,
2013-01-29 12:59:00,47.7,47.4,29.55,SW,225,2.2,-999.0,99,-99.99,,,0.24,Acu-Link.com,2013-01-29 17:59:00,
2013-01-29 13:22:00,49.3,49.0,29.55,ESE,112,2.7,-999.0,99,-99.99,,,0.25,Acu-Link.com,2013-01-29 18:22:00,
2013-01-29 13:37:00,50.0,49.7,29.52,South,180,4.2,-999.0,99,-99.99,,,0.25,Acu-Link.com,2013-01-29 18:37:00,
2013-01-29 13:53:00,51.3,51.0,29.52,SW,225,3.2,-999.0,99,-99.99,,,0.25,Acu-Link.com,2013-01-29 18:53:00,
2013-01-29 14:09:00,52.2,51.9,29.52,SSW,202,2.2,-999.0,99,-99.99,,,0.25,Acu-Link.com,2013-01-29 19:09:00,
2013-01-29 14:24:00,52.9,52.6,29.49,SW,225,2.7,-999.0,99,-99.99,,,0.25,Acu-Link.com,2013-01-29 19:24:00,
2013-01-29 14:39:00,53.4,53.1,29.50,WSW,247,2.2,-999.0,99,-99.99,,,0.25,Acu-Link.com,2013-01-29 19:39:00,
2013-01-29 15:00:00,53.6,53.3,29.50,WSW,247,5.3,-999.0,99,-99.99,,,0.25,Acu-Link.com,2013-01-29 20:00:00,
2013-01-29 15:18:00,53.6,53.3,29.50,WSW,247,4.7,-999.0,99,-99.99,,,0.25,Acu-Link.com,2013-01-29 20:18:00,
2013-01-29 16:02:00,53.6,53.3,29.50,SSW,202,3.2,-999.0,99,-99.99,,,0.25,Acu-Link.com,2013-01-29 21:02:00,
2013-01-29 16:20:00,53.8,53.5,29.44,SSW,202,5.8,-999.0,99,-99.99,,,0.25,Acu-Link.com,2013-01-29 21:20:00,
2013-01-29 16:35:00,53.8,53.5,29.45,SSW,202,4.7,-999.0,99,-99.99,,,0.25,Acu-Link.com,2013-01-29 21:35:00,
2013-01-29 16:51:00,53.8,53.5,29.49,WSW,247,6.3,-999.0,99,-99.99,,,0.27,Acu-Link.com,2013-01-29 21:51:00,
2013-01-29 17:06:00,54.0,53.7,29.49,SSW,202,5.3,-999.0,99,-99.99,,,0.31,Acu-Link.com,2013-01-29 22:06:00,
2013-01-29 17:21:00,54.0,53.7,29.48,West,270,5.8,-999.0,99,-99.99,,,0.36,Acu-Link.com,2013-01-29 22:21:00,
2013-01-29 17:37:00,53.8,53.5,29.47,ESE,112,4.2,-999.0,99,-99.99,,,0.37,Acu-Link.com,2013-01-29 22:37:00,
2013-01-29 17:52:00,54.0,53.7,29.48,SW,225,6.3,-999.0,99,-99.99,,,0.41,Acu-Link.com,2013-01-29 22:52:00,
2013-01-29 18:11:00,54.0,53.7,29.47,SW,225,3.2,-999.0,99,-99.99,,,0.42,Acu-Link.com,2013-01-29 23:11:00,
2013-01-29 18:26:00,54.1,53.8,29.47,South,180,8.9,-999.0,99,-99.99,,,0.42,Acu-Link.com,2013-01-29 23:26:00,
2013-01-29 18:41:00,54.1,53.8,29.47,WSW,247,4.7,-999.0,99,-99.99,,,0.42,Acu-Link.com,2013-01-29 23:41:00,
2013-01-29 18:56:00,54.5,54.2,29.46,SW,225,7.3,-999.0,99,-99.99,,,0.42,Acu-Link.com,2013-01-29 23:56:00,
2013-01-29 19:12:00,54.7,54.4,29.46,WSW,247,5.3,-999.0,99,-99.99,,,0.42,Acu-Link.com,2013-01-30 00:12:00,
2013-01-29 19:27:00,54.7,54.4,29.44,South,180,6.3,-999.0,99,-99.99,,,0.42,Acu-Link.com,2013-01-30 00:27:00,
2013-01-29 19:43:00,54.7,54.4,29.43,SSW,202,6.8,-999.0,99,-99.99,,,0.42,Acu-Link.com,2013-01-30 00:43:00,
2013-01-29 19:58:00,54.9,54.6,29.44,South,180,4.2,-999.0,99,-99.99,,,0.42,Acu-Link.com,2013-01-30 00:58:00,
2013-01-29 20:13:00,54.9,54.6,29.42,SSE,157,7.8,-999.0,99,-99.99,,,0.43,Acu-Link.com,2013-01-30 01:13:00,
2013-01-29 20:29:00,54.7,54.4,29.42,WSW,247,7.3,-999.0,99,-99.99,,,0.43,Acu-Link.com,2013-01-30 01:29:00,
2013-01-29 20:44:00,54.7,54.4,29.39,SW,225,5.3,-999.0,99,-99.99,,,0.44,Acu-Link.com,2013-01-30 01:44:00,
2013-01-29 21:00:00,54.9,54.6,29.40,SW,225,10.9,-999.0,99,-99.99,,,0.45,Acu-Link.com,2013-01-30 02:00:00,
2013-01-29 21:15:00,54.9,54.6,29.39,SSW,202,6.3,-999.0,99,-99.99,,,0.45,Acu-Link.com,2013-01-30 02:15:00,
2013-01-29 21:30:00,54.9,54.6,29.38,West,270,5.3,-999.0,99,-99.99,,,0.45,Acu-Link.com,2013-01-30 02:30:00,
2013-01-29 21:45:00,54.9,54.6,29.37,SW,225,3.2,-999.0,99,-99.99,,,0.46,Acu-Link.com,2013-01-30 02:45:00,
2013-01-29 22:01:00,55.2,54.9,29.35,West,270,6.3,-999.0,99,-99.99,,,0.46,Acu-Link.com,2013-01-30 03:01:00,
2013-01-29 22:16:00,55.4,55.1,29.34,SSW,202,9.4,-999.0,99,-99.99,,,0.46,Acu-Link.com,2013-01-30 03:16:00,
2013-01-29 22:31:00,55.4,55.1,29.34,SSW,202,4.7,-999.0,99,-99.99,,,0.46,Acu-Link.com,2013-01-30 03:31:00,
2013-01-29 22:46:00,55.6,55.3,29.32,SW,225,7.3,-999.0,99,-99.99,,,0.46,Acu-Link.com,2013-01-30 03:46:00,
2013-01-29 23:02:00,55.8,55.5,29.30,West,270,3.7,-999.0,99,-99.99,,,0.46,Acu-Link.com,2013-01-30 04:02:00,
2013-01-29 23:17:00,56.1,55.5,29.29,SSW,202,4.7,-999.0,98,-99.99,,,0.46,Acu-Link.com,2013-01-30 04:17:00,
2013-01-29 23:32:00,56.1,55.5,29.28,SSW,202,5.8,-999.0,98,-99.99,,,0.46,Acu-Link.com,2013-01-30 04:32:00,
2013-01-29 23:50:00,56.1,55.5,29.27,SSE,157,4.7,-999.0,98,-99.99,,,0.46,Acu-Link.com,2013-01-30 04:50:00,